Time;durP1;ratioP1;P1;durP2;ratioP2;P2;SDS_P1;SDS_P2;PMS_P1;PMS_P2;Temp;Humidity;BMP_temperature;BMP_pressure;BME280_temperature;BME280_humidity;BME280_pressure;Samples;Min_cycle;Max_cycle;Signal;HPM_P1;HPM_P2
2022/11/03 00:00:07;;;;;;;12.93;3.38;;;11.10;99.90;;;;;;4995248;28;20034;-71
2022/11/03 00:02:33;;;;;;;10.48;3.72;;;11.10;99.90;;;;;;4993578;28;20050;-71
2022/11/03 00:06:03;;;;;;;10.57;2.90;;;11.10;99.90;;;;;;4995151;28;20154;-71
2022/11/03 00:07:44;;;;;;;14.32;3.00;;;11.10;99.90;;;;;;4994871;28;20420;-71
2022/11/03 00:10:09;;;;;;;12.25;2.97;;;11.10;99.90;;;;;;4995009;28;20070;-71
2022/11/03 00:12:35;;;;;;;13.27;2.97;;;11.10;99.90;;;;;;4993614;28;20046;-71
2022/11/03 00:15:01;;;;;;;11.55;2.83;;;11.20;99.90;;;;;;4993529;28;20042;-71
2022/11/03 00:17:26;;;;;;;13.60;2.78;;;11.10;99.90;;;;;;4993632;28;20085;-71
2022/11/03 00:19:52;;;;;;;16.15;3.17;;;11.20;99.90;;;;;;4993512;28;20069;-71
2022/11/03 00:22:17;;;;;;;14.82;3.13;;;11.20;99.90;;;;;;4994490;28;20046;-71
2022/11/03 00:24:42;;;;;;;10.93;2.58;;;11.20;99.90;;;;;;4994845;28;20039;-71
2022/11/03 00:27:08;;;;;;;12.05;2.63;;;11.20;99.90;;;;;;4994837;28;20046;-71
2022/11/03 00:29:33;;;;;;;15.25;2.72;;;11.20;99.90;;;;;;4994512;28;20069;-71
2022/11/03 00:31:59;;;;;;;8.30;2.85;;;11.20;99.90;;;;;;4993314;28;20042;-72
2022/11/03 00:34:25;;;;;;;10.35;2.47;;;11.20;99.90;;;;;;4994218;28;20053;-71
2022/11/03 00:36:50;;;;;;;11.30;2.92;;;11.20;99.90;;;;;;4993299;28;20046;-71
2022/11/03 00:39:16;;;;;;;8.30;2.38;;;11.10;99.90;;;;;;4993312;28;20050;-72
2022/11/03 00:41:41;;;;;;;6.70;2.67;;;11.20;99.90;;;;;;4993066;28;20480;-71
2022/11/03 00:44:09;;;;;;;10.45;3.10;;;11.10;99.90;;;;;;4994114;28;20096;-71
2022/11/03 00:46:35;;;;;;;10.85;2.42;;;11.20;99.90;;;;;;4993286;28;20065;-71
2022/11/03 00:49:00;;;;;;;15.80;3.00;;;11.20;99.90;;;;;;4994202;28;20493;-71
2022/11/03 00:51:32;;;;;;;13.27;3.00;;;11.10;99.90;;;;;;4993005;28;20047;-71
2022/11/03 00:54:00;;;;;;;14.20;2.58;;;11.10;99.90;;;;;;4992531;28;20050;-71
2022/11/03 00:56:28;;;;;;;13.73;3.17;;;11.00;99.90;;;;;;4994281;28;20097;-71
2022/11/03 00:58:55;;;;;;;13.40;3.25;;;11.00;99.90;;;;;;4994074;28;20054;-71
2022/11/03 01:01:23;;;;;;;13.75;2.63;;;11.00;99.90;;;;;;4994104;28;20038;-71
2022/11/03 01:06:50;;;;;;;10.63;3.13;;;11.00;99.90;;;;;;4994056;28;20050;-71
2022/11/03 01:09:32;;;;;;;11.60;2.58;;;11.00;99.90;;;;;;4992824;28;20050;-71
2022/11/03 01:12:03;;;;;;;17.05;2.97;;;11.00;99.90;;;;;;4992623;28;20124;-71
2022/11/03 01:14:41;;;;;;;15.02;2.88;;;11.00;99.90;;;;;;4992460;28;20049;-71
2022/11/03 01:17:09;;;;;;;10.88;3.80;;;11.00;99.90;;;;;;4992715;28;20125;-71
2022/11/03 01:19:35;;;;;;;12.85;4.28;;;10.90;99.90;;;;;;4993495;28;20504;-71
2022/11/03 01:22:00;;;;;;;11.77;2.13;;;11.00;99.90;;;;;;4993554;28;20042;-71
2022/11/03 01:24:26;;;;;;;8.02;2.22;;;10.90;99.90;;;;;;4993406;28;20054;-71
2022/11/03 01:26:51;;;;;;;12.40;2.83;;;10.90;99.90;;;;;;4993458;28;20125;-71
2022/11/03 01:29:17;;;;;;;13.02;2.50;;;10.90;99.90;;;;;;4992043;28;20488;-71
2022/11/03 01:31:43;;;;;;;8.50;2.10;;;10.90;99.90;;;;;;4993583;28;20038;-71
2022/11/03 01:34:14;;;;;;;13.95;3.05;;;10.90;99.90;;;;;;4993009;28;20078;-71
2022/11/03 01:36:40;;;;;;;14.23;2.97;;;10.90;99.90;;;;;;4993456;28;20034;-71
2022/11/03 01:39:06;;;;;;;8.10;2.30;;;10.90;99.90;;;;;;4993311;28;20034;-71
2022/11/03 01:41:31;;;;;;;11.05;2.35;;;10.90;99.90;;;;;;4992256;28;20372;-71
2022/11/03 01:44:06;;;;;;;14.73;2.65;;;10.90;99.90;;;;;;4991744;28;20556;-71
2022/11/03 01:46:35;;;;;;;9.88;2.05;;;10.90;99.90;;;;;;4991952;28;20050;-71
2022/11/03 01:49:13;;;;;;;8.45;1.95;;;10.90;99.90;;;;;;4991832;28;20053;-71
2022/11/03 01:51:40;;;;;;;14.02;3.10;;;10.90;99.90;;;;;;4992988;28;20117;-71
2022/11/03 01:54:09;;;;;;;15.88;2.70;;;10.80;99.90;;;;;;5008017;28;20058;-71
2022/11/03 01:56:39;;;;;;;12.38;2.95;;;10.90;99.90;;;;;;4991737;28;20050;-71
2022/11/03 01:59:06;;;;;;;12.32;2.90;;;10.80;99.90;;;;;;4992905;28;20042;-71
2022/11/03 02:01:32;;;;;;;9.90;2.67;;;10.80;99.90;;;;;;4991855;28;20412;-71
2022/11/03 02:04:09;;;;;;;16.42;3.60;;;10.80;99.90;;;;;;4992608;28;20046;-71
2022/11/03 02:06:36;;;;;;;17.45;3.05;;;10.80;99.90;;;;;;4993063;28;20050;-71
2022/11/03 02:09:07;;;;;;;15.05;2.65;;;10.80;99.90;;;;;;4991708;28;20046;-72
2022/11/03 02:14:18;;;;;;;13.25;2.70;;;10.80;99.90;;;;;;4991094;28;20057;-71
2022/11/03 02:16:55;;;;;;;13.50;3.17;;;10.80;99.90;;;;;;4992708;28;20400;-71
2022/11/03 02:19:31;;;;;;;10.15;2.72;;;10.70;99.90;;;;;;4990798;28;20057;-71
2022/11/03 02:22:01;;;;;;;16.38;2.80;;;10.80;99.90;;;;;;4992676;28;20065;-71
2022/11/03 02:24:47;;;;;;;12.13;2.95;;;10.80;99.90;;;;;;4992459;28;20042;-71
2022/11/03 02:27:13;;;;;;;11.05;3.67;;;10.70;99.90;;;;;;4992119;28;20487;-72
2022/11/03 02:29:38;;;;;;;14.57;2.50;;;10.80;99.90;;;;;;4992362;28;20046;-71
2022/11/03 02:32:21;;;;;;;13.15;2.95;;;10.70;99.90;;;;;;4992693;28;20077;-71
2022/11/03 02:35:16;;;;;;;14.40;3.45;;;10.70;99.90;;;;;;4991110;28;20105;-71
2022/11/03 02:37:49;;;;;;;11.98;3.40;;;10.80;99.90;;;;;;4992265;28;20434;-71
2022/11/03 02:40:28;;;;;;;10.25;2.58;;;10.70;99.90;;;;;;4992549;28;20070;-71
2022/11/03 02:42:55;;;;;;;13.95;3.00;;;10.70;99.90;;;;;;4990801;28;20052;-71
2022/11/03 02:45:23;;;;;;;14.25;3.15;;;10.70;99.90;;;;;;4992349;28;20089;-71
2022/11/03 02:47:50;;;;;;;9.05;2.95;;;10.70;99.90;;;;;;4990947;28;20125;-71
2022/11/03 02:50:18;;;;;;;17.40;3.22;;;10.70;99.90;;;;;;4990763;28;20050;-71
2022/11/03 02:52:46;;;;;;;9.85;2.53;;;10.70;99.90;;;;;;4990925;28;20051;-71
2022/11/03 02:55:20;;;;;;;11.95;3.05;;;10.70;99.90;;;;;;4992335;28;20125;-71
2022/11/03 02:58:10;;;;;;;12.82;3.45;;;10.70;99.90;;;;;;4992071;28;20512;-71
2022/11/03 03:00:46;;;;;;;11.60;3.53;;;10.70;99.90;;;;;;4990975;28;20073;-71
2022/11/03 03:03:25;;;;;;;10.05;3.08;;;10.70;99.90;;;;;;4991912;28;20038;-71
2022/11/03 03:05:55;;;;;;;12.88;2.83;;;10.80;99.90;;;;;;4990827;28;20050;-71
2022/11/03 03:08:24;;;;;;;10.63;2.78;;;10.80;99.90;;;;;;4992151;28;20042;-71
2022/11/03 03:10:50;;;;;;;6.60;2.33;;;10.70;99.90;;;;;;4992041;28;20078;-71
2022/11/03 03:13:19;;;;;;;9.65;2.42;;;10.80;99.90;;;;;;4991678;28;20445;-71
2022/11/03 03:15:58;;;;;;;13.07;3.05;;;10.80;99.90;;;;;;4992215;28;20041;-71
2022/11/03 03:18:45;;;;;;;13.23;3.08;;;10.80;99.90;;;;;;4990747;28;20050;-71
2022/11/03 03:21:25;;;;;;;12.25;3.08;;;10.80;99.90;;;;;;4991824;28;20116;-71
2022/11/03 03:24:08;;;;;;;14.13;3.38;;;10.80;99.90;;;;;;4990429;28;20624;-71
2022/11/03 03:26:41;;;;;;;11.43;2.63;;;10.80;99.90;;;;;;4992091;28;20049;-71
2022/11/03 03:29:16;;;;;;;13.77;3.47;;;10.80;99.90;;;;;;4990777;28;20038;-71
2022/11/03 03:31:46;;;;;;;13.88;3.20;;;10.80;99.90;;;;;;4995016;28;20070;-72
2022/11/03 03:34:14;;;;;;;10.93;2.92;;;10.80;99.90;;;;;;4993963;28;20078;-71
2022/11/03 03:36:43;;;;;;;10.88;3.42;;;10.80;99.90;;;;;;4995805;28;20039;-71
2022/11/03 03:39:11;;;;;;;10.90;4.07;;;10.90;99.90;;;;;;4994235;28;20090;-71
2022/11/03 03:41:38;;;;;;;15.95;4.05;;;10.90;99.90;;;;;;4994580;28;20401;-71
2022/11/03 03:44:08;;;;;;;12.70;3.45;;;10.80;99.90;;;;;;4993859;28;20058;-71
2022/11/03 03:46:38;;;;;;;13.50;3.63;;;10.90;99.90;;;;;;4994160;28;20046;-71
2022/11/03 03:49:04;;;;;;;13.68;3.65;;;10.90;99.90;;;;;;4995338;28;20069;-71
2022/11/03 03:51:31;;;;;;;10.73;2.80;;;10.90;99.90;;;;;;4994375;28;20137;-71
2022/11/03 03:53:57;;;;;;;10.68;3.38;;;10.80;99.90;;;;;;4993641;28;20046;-71
2022/11/03 03:56:31;;;;;;;10.75;3.70;;;10.90;99.90;;;;;;4994036;28;20038;-71
2022/11/03 03:58:57;;;;;;;18.55;3.40;;;10.80;99.90;;;;;;4995223;28;20487;-71
2022/11/03 04:01:23;;;;;;;12.80;2.67;;;11.00;99.90;;;;;;4994097;28;20073;-71
2022/11/03 04:03:48;;;;;;;11.20;3.08;;;10.90;99.90;;;;;;4993435;28;20038;-71
2022/11/03 04:06:14;;;;;;;9.75;2.75;;;11.00;99.90;;;;;;4994071;28;20492;-71
2022/11/03 04:08:39;;;;;;;10.27;3.08;;;10.90;99.90;;;;;;4994999;28;20643;-71
2022/11/03 04:22:16;;;;;;;12.60;3.05;;;10.90;99.90;;;;;;4993454;28;20057;-71
2022/11/03 04:24:44;;;;;;;13.13;2.88;;;10.90;99.90;;;;;;4993409;28;20520;-71
2022/11/03 04:27:22;;;;;;;9.88;2.90;;;10.90;99.90;;;;;;4993575;28;20050;-71
2022/11/03 04:29:47;;;;;;;14.05;2.55;;;10.90;99.90;;;;;;4993051;28;20117;-71
2022/11/03 04:32:15;;;;;;;14.07;2.63;;;10.90;99.90;;;;;;4993017;28;20045;-71
2022/11/03 04:34:41;;;;;;;12.75;2.58;;;10.90;99.90;;;;;;4993156;28;20444;-71
2022/11/03 04:37:14;;;;;;;10.68;2.63;;;10.80;99.90;;;;;;4993106;28;20042;-71
2022/11/03 04:39:40;;;;;;;11.80;2.45;;;10.90;99.90;;;;;;4992972;28;20042;-71
2022/11/03 04:42:20;;;;;;;10.07;2.83;;;10.80;99.90;;;;;;4992468;28;20571;-71
2022/11/03 04:44:47;;;;;;;11.50;3.05;;;10.90;99.90;;;;;;4994114;28;20046;-71
2022/11/03 04:47:15;;;;;;;11.00;3.45;;;10.80;99.90;;;;;;4994006;28;20046;-71
2022/11/03 04:49:42;;;;;;;11.43;3.05;;;10.90;99.90;;;;;;4992744;28;20121;-71
2022/11/03 04:52:15;;;;;;;17.60;3.22;;;10.80;99.90;;;;;;4994140;28;20034;-71
2022/11/03 04:54:41;;;;;;;14.65;3.50;;;10.80;99.90;;;;;;4992953;28;20092;-71
2022/11/03 04:57:15;;;;;;;11.45;3.60;;;10.80;99.90;;;;;;4992758;28;20066;-72
2022/11/03 04:59:42;;;;;;;14.00;3.08;;;10.90;99.90;;;;;;4994123;28;20042;-71
2022/11/03 05:02:18;;;;;;;10.82;2.70;;;10.80;99.90;;;;;;4994049;28;20046;-71
2022/11/03 05:04:43;;;;;;;9.13;3.10;;;10.80;99.90;;;;;;4992666;28;20516;-72
2022/11/03 05:07:22;;;;;;;9.48;2.47;;;10.90;99.90;;;;;;4993871;28;20046;-71
2022/11/03 05:09:48;;;;;;;14.93;2.83;;;10.80;99.90;;;;;;5007761;28;20053;-71
2022/11/03 05:12:14;;;;;;;12.23;2.63;;;10.70;99.90;;;;;;4991622;28;20048;-71
2022/11/03 05:14:39;;;;;;;14.38;3.42;;;10.80;99.90;;;;;;4991734;28;20050;-71
2022/11/03 05:17:17;;;;;;;13.13;2.92;;;10.80;99.90;;;;;;4993499;28;20085;-71
2022/11/03 05:19:43;;;;;;;10.55;2.22;;;10.80;99.90;;;;;;4992237;28;20042;-71
2022/11/03 05:22:16;;;;;;;8.43;3.00;;;10.70;99.90;;;;;;4992432;28;20053;-71
2022/11/03 05:24:43;;;;;;;12.07;2.90;;;10.80;99.90;;;;;;4993835;28;20046;-71
2022/11/03 05:27:18;;;;;;;8.35;2.55;;;10.70;99.90;;;;;;4992431;28;20050;-73
2022/11/03 05:29:44;;;;;;;12.07;2.63;;;10.70;99.90;;;;;;4993999;28;20049;-71
2022/11/03 05:32:21;;;;;;;10.18;3.17;;;10.60;99.90;;;;;;4992028;28;20038;-71
2022/11/03 05:34:49;;;;;;;8.20;2.45;;;10.70;99.90;;;;;;4993339;28;20045;-71
2022/11/03 05:37:22;;;;;;;8.20;3.22;;;10.70;99.90;;;;;;4993498;28;20558;-71
2022/11/03 05:39:49;;;;;;;13.60;3.63;;;10.70;99.90;;;;;;4992584;28;20432;-71
2022/11/03 05:42:32;;;;;;;11.18;2.47;;;10.70;99.90;;;;;;4993119;28;20042;-71
2022/11/03 05:45:00;;;;;;;13.73;3.17;;;10.70;99.90;;;;;;4992015;28;20100;-72
2022/11/03 05:47:36;;;;;;;11.77;3.38;;;10.70;99.90;;;;;;4991840;28;20050;-71
2022/11/03 05:50:20;;;;;;;14.00;3.40;;;10.70;99.90;;;;;;4991797;28;20046;-71
2022/11/03 05:52:48;;;;;;;17.58;3.40;;;10.60;99.90;;;;;;4991456;28;20054;-71
2022/11/03 05:55:26;;;;;;;10.25;3.40;;;10.60;99.90;;;;;;4990950;28;20069;-71
2022/11/03 05:57:55;;;;;;;13.25;3.13;;;10.60;99.90;;;;;;4991718;28;20117;-71
2022/11/03 06:00:32;;;;;;;11.88;2.80;;;10.60;99.90;;;;;;4992946;28;20042;-71
2022/11/03 06:02:58;;;;;;;11.70;3.22;;;10.60;99.90;;;;;;4992693;28;20121;-71
2022/11/03 06:05:25;;;;;;;13.43;2.90;;;10.60;99.90;;;;;;4991664;28;20052;-71
2022/11/03 06:07:56;;;;;;;15.60;3.60;;;10.60;99.90;;;;;;4992831;28;20053;-71
2022/11/03 06:10:28;;;;;;;13.35;2.72;;;10.60;99.90;;;;;;4991434;28;20038;-71
2022/11/03 06:12:58;;;;;;;13.05;3.25;;;10.60;99.90;;;;;;4991112;28;20551;-71
2022/11/03 06:15:29;;;;;;;11.50;3.92;;;10.60;99.90;;;;;;4992683;28;20497;-71
2022/11/03 06:17:56;;;;;;;9.18;2.55;;;10.60;99.90;;;;;;4991683;28;20392;-71
2022/11/03 06:20:22;;;;;;;10.80;3.58;;;10.60;99.90;;;;;;4992057;28;20076;-71
2022/11/03 06:22:49;;;;;;;10.57;2.78;;;10.60;99.90;;;;;;4992253;28;20544;-71
2022/11/03 06:25:35;;;;;;;10.98;3.50;;;10.60;99.90;;;;;;4992448;28;20496;-71
2022/11/03 06:28:21;;;;;;;11.02;3.38;;;10.60;99.90;;;;;;4991324;28;20077;-71
2022/11/03 06:30:48;;;;;;;9.10;2.72;;;10.60;99.90;;;;;;4992404;28;20492;-71
2022/11/03 06:33:20;;;;;;;9.45;2.83;;;10.60;99.90;;;;;;4990872;28;20125;-71
2022/11/03 06:35:48;;;;;;;12.73;3.20;;;10.60;99.90;;;;;;4992462;28;20053;-71
2022/11/03 06:38:24;;;;;;;11.05;3.08;;;10.60;99.90;;;;;;4991029;28;20047;-71
2022/11/03 06:40:51;;;;;;;7.43;3.22;;;10.60;99.90;;;;;;4992401;28;20432;-72
2022/11/03 06:43:30;;;;;;;13.02;2.78;;;10.60;99.90;;;;;;4990760;28;20042;-71
2022/11/03 06:46:01;;;;;;;16.10;4.32;;;10.60;99.90;;;;;;4992140;28;20105;-71
2022/11/03 06:48:34;;;;;;;9.30;3.15;;;10.50;99.90;;;;;;4990763;28;20117;-71
2022/11/03 06:51:00;;;;;;;;;;;10.60;99.90;;;;;;4992804;28;20053;-71
2022/11/03 06:53:32;;;;;;;16.10;3.63;;;10.60;99.90;;;;;;4991954;28;20358;-71
2022/11/03 06:55:58;;;;;;;11.07;2.97;;;10.60;99.90;;;;;;4990819;28;20101;-71
2022/11/03 06:58:29;;;;;;;15.38;2.67;;;10.60;99.90;;;;;;4991105;28;20050;-71
2022/11/03 07:00:58;;;;;;;11.32;3.22;;;10.60;99.90;;;;;;4992123;28;20078;-71
2022/11/03 07:03:32;;;;;;;8.82;3.15;;;10.70;99.90;;;;;;4991705;28;20042;-71
2022/11/03 07:06:04;;;;;;;11.98;3.30;;;10.70;99.90;;;;;;4994021;28;20042;-71
2022/11/03 07:08:35;;;;;;;12.32;2.78;;;10.70;99.90;;;;;;4996027;28;20097;-71
2022/11/03 07:11:33;;;;;;;12.00;3.03;;;10.70;99.90;;;;;;4994980;28;20097;-71
2022/11/03 07:14:14;;;;;;;9.95;2.80;;;10.80;99.90;;;;;;4986218;28;20054;-71
2022/11/03 07:16:58;;;;;;;8.77;2.83;;;10.80;99.90;;;;;;4995287;28;20042;-71
2022/11/03 07:19:32;;;;;;;8.00;2.60;;;10.80;99.90;;;;;;4995942;28;20049;-72
2022/11/03 07:22:00;;;;;;;11.52;3.53;;;10.90;99.90;;;;;;4995936;28;20042;-71
2022/11/03 07:24:45;;;;;;;12.80;3.20;;;10.90;99.90;;;;;;4994342;28;20132;-71
2022/11/03 07:27:25;;;;;;;10.50;2.80;;;11.00;99.90;;;;;;4994513;28;20050;-71
2022/11/03 07:29:56;;;;;;;12.27;4.47;;;11.00;99.90;;;;;;4995258;28;20042;-71
2022/11/03 07:32:28;;;;;;;11.82;3.35;;;11.10;99.90;;;;;;4993928;28;20125;-72
2022/11/03 07:35:14;;;;;;;9.40;2.90;;;11.20;99.90;;;;;;4994280;28;20456;-71
2022/11/03 07:37:40;;;;;;;21.60;4.72;;;11.30;99.90;;;;;;4993902;28;20090;-72
2022/11/03 07:40:12;;;;;;;11.65;3.05;;;11.30;99.90;;;;;;4994373;28;20073;-71
2022/11/03 07:42:38;;;;;;;16.17;3.47;;;11.40;99.90;;;;;;4995214;28;20129;-71
2022/11/03 07:45:32;;;;;;;9.75;2.70;;;11.50;99.90;;;;;;4995654;28;20125;-71
2022/11/03 07:47:58;;;;;;;14.25;3.58;;;11.50;99.90;;;;;;4995283;28;20492;-70
2022/11/03 07:50:24;;;;;;;13.93;3.50;;;11.50;99.90;;;;;;4994006;28;20050;-72
2022/11/03 07:52:49;;;;;;;12.40;3.67;;;11.50;99.90;;;;;;5004836;28;20038;-72
2022/11/03 07:55:15;;;;;;;14.80;3.03;;;11.50;99.90;;;;;;5000516;28;20443;-71
2022/11/03 07:57:40;;;;;;;13.88;4.07;;;11.70;99.90;;;;;;4994027;28;20045;-71
2022/11/03 08:00:12;;;;;;;8.98;3.00;;;11.70;99.90;;;;;;4994991;28;20034;-72
2022/11/03 08:02:55;;;;;;;12.10;3.35;;;11.70;99.90;;;;;;4993506;28;20113;-72
2022/11/03 08:05:21;;;;;;;9.30;3.00;;;11.80;99.90;;;;;;4993819;28;20046;-71
2022/11/03 08:07:46;;;;;;;12.20;2.78;;;11.80;99.90;;;;;;4995131;28;20101;-72
2022/11/03 08:10:12;;;;;;;10.15;3.33;;;11.90;99.90;;;;;;4993683;28;20116;-71
2022/11/03 08:12:38;;;;;;;15.48;4.22;;;11.90;99.90;;;;;;4993645;28;20043;-71
2022/11/03 08:15:04;;;;;;;16.42;4.13;;;11.90;99.90;;;;;;4994786;28;20149;-73
2022/11/03 08:17:29;;;;;;;14.30;4.47;;;12.00;99.90;;;;;;4993692;28;20035;-71
2022/11/03 08:19:55;;;;;;;15.90;2.92;;;12.10;99.90;;;;;;4996560;28;20039;-72
2022/11/03 08:22:24;;;;;;;13.05;4.18;;;12.20;99.90;;;;;;4991039;28;20031;-72
2022/11/03 08:24:50;;;;;;;14.10;3.60;;;12.20;99.90;;;;;;4984350;28;20062;-72
2022/11/03 08:27:16;;;;;;;11.98;3.40;;;12.30;99.90;;;;;;4994054;28;20501;-72
2022/11/03 08:29:41;;;;;;;9.68;3.22;;;12.40;99.90;;;;;;4994387;28;20046;-72
2022/11/03 08:32:07;;;;;;;7.97;3.25;;;12.40;99.90;;;;;;4993274;28;20042;-73
2022/11/03 08:34:32;;;;;;;8.02;2.38;;;12.50;99.90;;;;;;4994503;28;20117;-73
2022/11/03 08:36:58;;;;;;;9.73;2.75;;;12.60;99.90;;;;;;4994710;28;20034;-72
2022/11/03 08:39:23;;;;;;;14.13;3.35;;;12.60;99.90;;;;;;4992949;28;20124;-72
2022/11/03 08:41:48;;;;;;;7.88;2.85;;;12.70;99.90;;;;;;4994427;28;20117;-72
2022/11/03 08:44:14;;;;;;;9.18;2.75;;;12.70;99.90;;;;;;4992993;28;20133;-72
2022/11/03 08:46:40;;;;;;;11.43;2.85;;;12.60;99.90;;;;;;4993050;28;20510;-72
2022/11/03 08:49:05;;;;;;;7.95;2.72;;;12.70;99.90;;;;;;4994321;28;20396;-72
2022/11/03 08:51:31;;;;;;;8.98;3.25;;;12.70;99.90;;;;;;4992863;28;20584;-72
2022/11/03 08:53:56;;;;;;;14.45;3.70;;;12.80;99.90;;;;;;4992442;28;20042;-72
2022/11/03 08:56:22;;;;;;;10.75;2.83;;;12.80;99.90;;;;;;4994091;28;20038;-72
2022/11/03 08:58:47;;;;;;;14.73;3.42;;;12.80;99.90;;;;;;4992640;28;20050;-72
2022/11/03 09:01:13;;;;;;;14.80;3.25;;;12.80;99.90;;;;;;4992710;28;20043;-72
2022/11/03 09:03:39;;;;;;;10.73;3.60;;;12.90;99.90;;;;;;4992387;28;20061;-72
2022/11/03 09:06:05;;;;;;;14.32;3.28;;;12.80;99.90;;;;;;4992831;28;20046;-72
2022/11/03 09:08:31;;;;;;;11.23;3.67;;;12.70;99.90;;;;;;4992548;28;20085;-72
2022/11/03 09:10:57;;;;;;;8.50;2.90;;;12.70;99.90;;;;;;4993809;28;20462;-72
2022/11/03 09:13:22;;;;;;;12.57;2.95;;;12.90;99.90;;;;;;4993344;28;20046;-72
2022/11/03 09:15:48;;;;;;;8.65;3.22;;;12.90;99.90;;;;;;4993772;28;20038;-73
2022/11/03 09:18:13;;;;;;;7.38;2.80;;;13.00;99.90;;;;;;5009492;28;20042;-72
2022/11/03 09:20:39;;;;;;;12.50;3.30;;;13.00;99.90;;;;;;5011769;28;20045;-72
2022/11/03 09:23:04;;;;;;;11.98;2.65;;;13.10;99.90;;;;;;5004993;28;20037;-73
2022/11/03 09:25:30;;;;;;;11.43;3.15;;;13.20;99.90;;;;;;5001071;28;20109;-73
2022/11/03 09:27:55;;;;;;;8.68;2.33;;;13.10;99.90;;;;;;5005578;28;20061;-73
2022/11/03 09:30:21;;;;;;;9.80;2.53;;;13.20;99.90;;;;;;5006850;28;20046;-73
2022/11/03 09:32:47;;;;;;;9.98;2.72;;;13.30;99.90;;;;;;5011754;28;20050;-72
2022/11/03 09:35:15;;;;;;;9.57;3.60;;;13.20;99.90;;;;;;5012280;28;20518;-72
2022/11/03 09:37:41;;;;;;;12.18;3.42;;;13.30;99.90;;;;;;5012165;28;20037;-72
2022/11/03 09:40:09;;;;;;;10.63;3.10;;;13.30;99.90;;;;;;5011898;28;20034;-72
2022/11/03 09:42:36;;;;;;;6.30;2.78;;;13.40;99.90;;;;;;5011520;28;20369;-72
2022/11/03 09:45:03;;;;;;;5.72;2.55;;;13.50;99.90;;;;;;5011472;28;20104;-72
2022/11/03 09:47:34;;;;;;;10.48;3.35;;;13.50;99.90;;;;;;5005588;28;20049;-72
2022/11/03 09:50:01;;;;;;;17.55;4.57;;;13.60;99.90;;;;;;4997113;28;20038;-73
2022/11/03 09:52:26;;;;;;;13.38;3.03;;;13.70;99.90;;;;;;4991668;28;20042;-72
2022/11/03 09:54:56;;;;;;;11.60;3.42;;;13.60;99.90;;;;;;4991701;28;20519;-73
2022/11/03 09:57:25;;;;;;;8.20;2.65;;;13.70;99.90;;;;;;4992955;28;20048;-72
2022/11/03 09:59:51;;;;;;;10.65;3.03;;;13.80;99.90;;;;;;4993006;28;20393;-73
2022/11/03 10:02:29;;;;;;;15.43;3.95;;;13.90;99.90;;;;;;4993952;28;20061;-72
2022/11/03 10:05:00;;;;;;;12.02;3.30;;;13.90;99.90;;;;;;4999483;28;20084;-72
2022/11/03 10:07:27;;;;;;;8.60;2.85;;;14.00;99.90;;;;;;4999908;28;20038;-72
2022/11/03 10:09:54;;;;;;;8.77;2.97;;;14.00;99.90;;;;;;4963661;28;20046;-72
2022/11/03 10:12:22;;;;;;;13.40;3.25;;;14.20;99.90;;;;;;4996426;28;20042;-73
2022/11/03 10:14:49;;;;;;;9.02;3.03;;;14.20;99.90;;;;;;4992198;28;20054;-73
2022/11/03 10:17:18;;;;;;;9.05;2.70;;;14.40;99.90;;;;;;4990572;28;20507;-73
2022/11/03 10:19:50;;;;;;;13.55;3.67;;;14.50;99.90;;;;;;4990383;28;20042;-73
2022/11/03 10:22:16;;;;;;;11.80;2.92;;;14.50;99.90;;;;;;4990870;28;20125;-73
2022/11/03 10:24:42;;;;;;;13.18;3.35;;;14.50;99.90;;;;;;4992574;28;20073;-73
2022/11/03 10:27:24;;;;;;;13.75;3.67;;;14.50;99.90;;;;;;4991372;28;20066;-73
2022/11/03 10:30:04;;;;;;;12.13;2.40;;;14.60;99.90;;;;;;4991450;28;20125;-73
2022/11/03 10:32:33;;;;;;;9.02;2.78;;;14.50;99.90;;;;;;4990847;28;20420;-73
2022/11/03 10:34:58;;;;;;;8.13;2.97;;;14.50;99.90;;;;;;4992519;28;20034;-73
2022/11/03 10:37:25;;;;;;;8.32;2.80;;;14.60;99.90;;;;;;4991171;28;20080;-73
2022/11/03 10:39:53;;;;;;;6.82;2.75;;;14.50;99.90;;;;;;4991741;28;20039;-73
2022/11/03 10:42:23;;;;;;;7.65;2.40;;;14.60;99.90;;;;;;4990881;28;20417;-73
2022/11/03 10:44:52;;;;;;;8.57;2.70;;;14.60;99.90;;;;;;4991132;28;20042;-73
2022/11/03 10:47:24;;;;;;;15.20;2.65;;;14.80;99.90;;;;;;4991030;28;20792;-72
2022/11/03 10:49:50;;;;;;;10.55;2.65;;;14.90;99.90;;;;;;4991010;28;20054;-73
2022/11/03 10:52:21;;;;;;;10.50;2.95;;;15.10;99.90;;;;;;4989432;28;20053;-72
2022/11/03 10:54:47;;;;;;;10.93;3.20;;;15.40;99.90;;;;;;4989818;28;20038;-73
2022/11/03 10:57:14;;;;;;;14.07;3.58;;;15.50;99.90;;;;;;4990546;28;20166;-73
2022/11/03 10:59:41;;;;;;;10.85;3.25;;;15.50;99.90;;;;;;4991877;28;20431;-73
2022/11/03 11:02:17;;;;;;;8.82;3.40;;;15.50;99.90;;;;;;4990764;28;20074;-73
2022/11/03 11:04:45;;;;;;;10.18;3.15;;;15.40;99.90;;;;;;4990862;28;20476;-73
2022/11/03 11:07:24;;;;;;;8.65;2.72;;;15.40;99.90;;;;;;4990876;28;20077;-73
2022/11/03 11:09:50;;;;;;;9.07;2.53;;;15.50;99.90;;;;;;4990977;28;20074;-73
2022/11/03 11:12:23;;;;;;;8.95;2.70;;;15.40;99.90;;;;;;4974412;28;20043;-73
2022/11/03 11:15:05;;;;;;;13.57;2.60;;;15.50;99.90;;;;;;4990717;28;20689;-73
2022/11/03 11:17:43;;;;;;;7.88;2.88;;;15.50;99.90;;;;;;4990824;28;20471;-73
2022/11/03 11:20:33;;;;;;;10.90;2.50;;;15.50;99.90;;;;;;4990654;28;20496;-73
2022/11/03 11:23:26;;;;;;;10.25;2.42;;;15.50;99.90;;;;;;4991897;28;20085;-73
2022/11/03 11:26:29;;;;;;;10.75;2.70;;;15.50;99.90;;;;;;4990908;28;20060;-73
2022/11/03 11:29:10;;;;;;;8.93;2.03;;;15.50;99.90;;;;;;4991610;28;20170;-73
2022/11/03 11:31:39;;;;;;;11.35;2.75;;;15.50;99.90;;;;;;4990466;28;20092;-73
2022/11/03 11:34:09;;;;;;;13.38;3.25;;;15.60;99.90;;;;;;4990298;28;20501;-73
2022/11/03 11:36:54;;;;;;;9.73;2.40;;;15.70;99.90;;;;;;4990846;28;20055;-73
2022/11/03 11:39:23;;;;;;;8.45;2.28;;;15.70;99.90;;;;;;4991618;28;20118;-73
2022/11/03 11:42:13;;;;;;;14.95;2.60;;;15.70;99.90;;;;;;4990595;28;20098;-73
2022/11/03 11:44:50;;;;;;;5.75;2.17;;;15.60;99.90;;;;;;4991437;28;20352;-73
2022/11/03 11:47:29;;;;;;;12.68;4.15;;;15.60;99.90;;;;;;4990537;28;20042;-73
2022/11/03 11:50:10;;;;;;;9.25;2.20;;;15.50;99.90;;;;;;4990267;28;20054;-73
2022/11/03 11:52:51;;;;;;;11.05;3.33;;;15.50;99.90;;;;;;4991402;28;20096;-73
2022/11/03 11:55:25;;;;;;;11.13;2.90;;;15.50;99.90;;;;;;4993886;28;20393;-73
2022/11/03 11:57:52;;;;;;;8.30;2.63;;;15.40;99.90;;;;;;4994079;28;20082;-73
2022/11/03 12:00:29;;;;;;;5.97;2.55;;;15.40;99.90;;;;;;4995300;28;20160;-73
2022/11/03 12:02:55;;;;;;;8.95;2.85;;;15.30;99.90;;;;;;4994934;28;20492;-73
2022/11/03 12:05:23;;;;;;;11.50;2.95;;;15.40;99.90;;;;;;4993743;28;20053;-73
2022/11/03 12:07:49;;;;;;;12.60;2.75;;;15.30;99.90;;;;;;4993867;28;20129;-73
2022/11/03 12:10:17;;;;;;;14.70;3.08;;;15.30;99.90;;;;;;4993673;28;20497;-73
2022/11/03 12:12:43;;;;;;;9.05;2.70;;;15.30;99.90;;;;;;4993343;28;20052;-73
2022/11/03 12:15:46;;;;;;;11.30;2.58;;;15.30;99.90;;;;;;4993601;28;20551;-73
2022/11/03 12:18:31;;;;;;;5.22;2.42;;;15.20;99.90;;;;;;4993681;28;20042;-73
2022/11/03 12:20:56;;;;;;;8.30;2.50;;;15.20;99.90;;;;;;4993719;28;20476;-73
2022/11/03 12:23:35;;;;;;;10.80;2.83;;;15.10;99.90;;;;;;4993159;28;20084;-73
2022/11/03 12:26:03;;;;;;;9.38;2.50;;;15.10;99.90;;;;;;4993468;28;20456;-73
2022/11/03 12:28:36;;;;;;;10.32;2.25;;;15.20;99.90;;;;;;4993617;28;20459;-73
2022/11/03 12:31:02;;;;;;;;;;;15.10;99.90;;;;;;4993825;28;20086;-73
2022/11/03 12:33:28;;;;;;;7.05;2.65;;;15.00;99.90;;;;;;4994303;28;19983;-73
2022/11/03 12:35:54;;;;;;;6.60;2.35;;;15.00;99.90;;;;;;4990674;28;20038;-73
2022/11/03 12:38:20;;;;;;;10.05;2.67;;;15.00;99.90;;;;;;4985011;28;20038;-73
2022/11/03 12:40:46;;;;;;;7.63;2.20;;;15.00;99.90;;;;;;4994429;28;20038;-73
2022/11/03 12:43:11;;;;;;;8.80;2.55;;;15.00;99.90;;;;;;4992910;28;20038;-73
2022/11/03 12:45:37;;;;;;;9.75;2.75;;;15.00;99.90;;;;;;4994360;28;20092;-73
2022/11/03 12:48:04;;;;;;;6.97;2.20;;;15.00;99.90;;;;;;4992858;28;20077;-73
2022/11/03 12:50:30;;;;;;;12.98;2.25;;;15.00;99.90;;;;;;4993301;28;20404;-73
2022/11/03 12:52:56;;;;;;;5.43;2.08;;;14.90;99.90;;;;;;4993896;28;20042;-74
2022/11/03 12:55:21;;;;;;;6.63;1.77;;;15.00;99.90;;;;;;4992965;28;20045;-73
2022/11/03 12:57:47;;;;;;;7.45;2.25;;;15.00;99.90;;;;;;4995377;28;20042;-72
2022/11/03 13:00:13;;;;;;;11.93;2.75;;;15.20;99.90;;;;;;4992906;28;20046;-72
2022/11/03 13:02:38;;;;;;;8.65;2.13;;;15.20;99.90;;;;;;4992171;28;20053;-72
2022/11/03 13:05:05;;;;;;;6.47;2.20;;;15.30;99.90;;;;;;4994272;28;20125;-72
2022/11/03 13:07:31;;;;;;;4.50;2.00;;;15.40;99.90;;;;;;4994192;28;20110;-72
2022/11/03 13:09:56;;;;;;;4.88;2.10;;;15.20;99.90;;;;;;4992697;28;20560;-72
2022/11/03 13:12:31;;;;;;;6.72;2.30;;;15.40;99.90;;;;;;4992212;28;20034;-72